Yutai Ambitions — VREK5 — position and weather

sailwx.info

Track history (hours):
 
Tides and Currents Weather Stations Pressure Air Temp Water Temp Dewpoint Dewpoint Depression Visibility Wind Speed Wind Dir Waves Ship Positions

Yutai Ambitions

Last reported at 2017-Nov-09 15:14 UTC. Time now 2017-Nov-24 03:54 UTC.
Position N 01°15' E 104°05'.
Warning: this ship's position is 14 days out of date.

Length 225 m; draft 14.3 m.

Type: Ship. MMSI: 477136300.

Date/timePositionNaut miles runAvg speedWind from/ knotsBaromVisibWave heightAir tempDewpointWater temp
2017-Nov-09 15:14N 01°15' E 104°05'311.7
2017-Nov-09 14:59N 01°15' E 104°02'4 9.3
2017-Nov-09 14:30N 01°15' E 103°57'2 2.4
2017-Nov-09 13:45N 01°17' E 103°56'0 0.1
2017-Nov-09 13:27N 01°17' E 103°56'0 0.0
2017-Nov-09 12:57N 01°17' E 103°56'0 0.0
2017-Nov-09 12:27N 01°17' E 103°56'0 0.1
2017-Nov-09 11:57N 01°17' E 103°56'0 0.0
2017-Nov-09 11:18N 01°17' E 103°56'0 0.0
2017-Nov-09 10:57N 01°17' E 103°56'0 0.0
2017-Nov-09 10:30N 01°17' E 103°56'0 0.0
2017-Nov-09 09:45N 01°16' E 103°56'0 0.0
2017-Nov-09 09:27N 01°16' E 103°56'0 0.0
2017-Nov-09 09:00N 01°16' E 103°56'0 0.0
2017-Nov-09 08:27N 01°16' E 103°56'0 0.0
2017-Nov-09 07:51N 01°16' E 103°56'0 0.1
2017-Nov-09 07:21N 01°17' E 103°56'0 0.2
2017-Nov-09 06:57N 01°17' E 103°56'0 0.2
2017-Nov-09 06:27N 01°17' E 103°56'0 0.2
2017-Nov-09 05:51N 01°16' E 103°56'0 0.1
2017-Nov-09 05:30N 01°16' E 103°56'0 0.0
2017-Nov-09 04:57N 01°16' E 103°56'0 0.0
2017-Nov-09 04:30N 01°16' E 103°56'0 0.0
2017-Nov-09 04:00N 01°16' E 103°56'0 0.0
2017-Nov-09 03:30N 01°16' E 103°56'0 0.0
2017-Nov-09 03:00N 01°16' E 103°56'0 0.0
2017-Nov-09 02:30N 01°16' E 103°56'0 0.0
2017-Nov-09 02:00N 01°16' E 103°56'0 0.0
2017-Nov-09 01:30N 01°16' E 103°56'0 0.0
2017-Nov-09 01:00N 01°16' E 103°56'0 0.0
2017-Nov-09 00:30N 01°16' E 103°56'0 0.0
2017-Nov-09 00:00N 01°16' E 103°56'0 0.0
2017-Nov-08 23:30N 01°16' E 103°56'0 0.0
2017-Nov-08 23:00N 01°16' E 103°56'0 0.0
2017-Nov-08 22:30N 01°16' E 103°56'0 0.0
2017-Nov-08 22:00N 01°16' E 103°56'0 0.0
2017-Nov-08 21:30N 01°16' E 103°56'0 0.0
2017-Nov-08 21:00N 01°16' E 103°56'0 0.0
2017-Nov-08 20:30N 01°16' E 103°56'0 0.0
2017-Nov-08 20:00N 01°16' E 103°56'0 0.0
2017-Nov-08 19:30N 01°16' E 103°56'0 0.1
2017-Nov-08 19:00N 01°16' E 103°56'2 3.3
2017-Nov-08 18:30N 01°15' E 103°57'2 4.6
2017-Nov-08 18:00N 01°13' E 103°55'3 6.4
2017-Nov-08 17:30N 01°12' E 103°52'3 5.3
2017-Nov-08 17:01N 01°11' E 103°50'4 7.5
2017-Nov-08 16:30N 01°09' E 103°47'5 9.2
2017-Nov-08 16:00N 01°05' E 103°44'4 7.3
2017-Nov-08 15:30N 01°03' E 103°41'2 4.8
2017-Nov-08 15:00N 01°03' E 103°38'1 1.4
2017-Nov-08 14:30N 01°03' E 103°38'1 1.7
2017-Nov-08 14:00N 01°04' E 103°37'1 2.7
2017-Nov-08 13:30N 01°04' E 103°36'3 5.5
2017-Nov-08 12:59N 01°06' E 103°34'611.7
2017-Nov-08 12:30N 01°09' E 103°29'812.0
2017-Nov-08 11:51N 01°13' E 103°22'  
Track history (hours):
 
Tides and Currents Weather Stations Pressure Air Temp Water Temp Dewpoint Dewpoint Depression Visibility Wind Speed Wind Dir Waves Ship Positions

Yutai Ambitions

Last reported at 2017-Nov-09 15:14 UTC. Time now 2017-Nov-24 03:54 UTC.
Position N 01°15' E 104°05'.
Warning: this ship's position is 14 days out of date.

Length 225 m; draft 14.3 m.

Type: Ship. MMSI: 477136300.

Date/timePositionNaut miles runAvg speedWind from/ knotsBaromVisibWave heightAir tempDewpointWater temp
2017-Nov-09 15:14N 01°15' E 104°05'311.7
2017-Nov-09 14:59N 01°15' E 104°02'4 9.3
2017-Nov-09 14:30N 01°15' E 103°57'2 2.4
2017-Nov-09 13:45N 01°17' E 103°56'0 0.1
2017-Nov-09 13:27N 01°17' E 103°56'0 0.0
2017-Nov-09 12:57N 01°17' E 103°56'0 0.0
2017-Nov-09 12:27N 01°17' E 103°56'0 0.1
2017-Nov-09 11:57N 01°17' E 103°56'0 0.0
2017-Nov-09 11:18N 01°17' E 103°56'0 0.0
2017-Nov-09 10:57N 01°17' E 103°56'0 0.0
2017-Nov-09 10:30N 01°17' E 103°56'0 0.0
2017-Nov-09 09:45N 01°16' E 103°56'0 0.0
2017-Nov-09 09:27N 01°16' E 103°56'0 0.0
2017-Nov-09 09:00N 01°16' E 103°56'0 0.0
2017-Nov-09 08:27N 01°16' E 103°56'0 0.0
2017-Nov-09 07:51N 01°16' E 103°56'0 0.1
2017-Nov-09 07:21N 01°17' E 103°56'0 0.2
2017-Nov-09 06:57N 01°17' E 103°56'0 0.2
2017-Nov-09 06:27N 01°17' E 103°56'0 0.2
2017-Nov-09 05:51N 01°16' E 103°56'0 0.1
2017-Nov-09 05:30N 01°16' E 103°56'0 0.0
2017-Nov-09 04:57N 01°16' E 103°56'0 0.0
2017-Nov-09 04:30N 01°16' E 103°56'0 0.0
2017-Nov-09 04:00N 01°16' E 103°56'0 0.0
2017-Nov-09 03:30N 01°16' E 103°56'0 0.0
2017-Nov-09 03:00N 01°16' E 103°56'0 0.0
2017-Nov-09 02:30N 01°16' E 103°56'0 0.0
2017-Nov-09 02:00N 01°16' E 103°56'0 0.0
2017-Nov-09 01:30N 01°16' E 103°56'0 0.0
2017-Nov-09 01:00N 01°16' E 103°56'0 0.0
2017-Nov-09 00:30N 01°16' E 103°56'0 0.0
2017-Nov-09 00:00N 01°16' E 103°56'0 0.0
2017-Nov-08 23:30N 01°16' E 103°56'0 0.0
2017-Nov-08 23:00N 01°16' E 103°56'0 0.0
2017-Nov-08 22:30N 01°16' E 103°56'0 0.0
2017-Nov-08 22:00N 01°16' E 103°56'0 0.0
2017-Nov-08 21:30N 01°16' E 103°56'0 0.0
2017-Nov-08 21:00N 01°16' E 103°56'0 0.0
2017-Nov-08 20:30N 01°16' E 103°56'0 0.0
2017-Nov-08 20:00N 01°16' E 103°56'0 0.0
2017-Nov-08 19:30N 01°16' E 103°56'0 0.1
2017-Nov-08 19:00N 01°16' E 103°56'2 3.3
2017-Nov-08 18:30N 01°15' E 103°57'2 4.6
2017-Nov-08 18:00N 01°13' E 103°55'3 6.4
2017-Nov-08 17:30N 01°12' E 103°52'3 5.3
2017-Nov-08 17:01N 01°11' E 103°50'4 7.5
2017-Nov-08 16:30N 01°09' E 103°47'5 9.2
2017-Nov-08 16:00N 01°05' E 103°44'4 7.3
2017-Nov-08 15:30N 01°03' E 103°41'2 4.8
2017-Nov-08 15:00N 01°03' E 103°38'1 1.4
2017-Nov-08 14:30N 01°03' E 103°38'1 1.7
2017-Nov-08 14:00N 01°04' E 103°37'1 2.7
2017-Nov-08 13:30N 01°04' E 103°36'3 5.5
2017-Nov-08 12:59N 01°06' E 103°34'611.7
2017-Nov-08 12:30N 01°09' E 103°29'812.0
2017-Nov-08 11:51N 01°13' E 103°22'  

Dump ship's entire track history